createdAt,value
2023-05-10T00:11:27.770Z,97306.81
2023-05-10T00:41:30.720Z,97315.59
2023-05-10T01:11:33.994Z,97307.03
2023-05-10T01:41:52.281Z,97319.25
2023-05-10T02:11:55.528Z,97331.50
2023-05-10T02:41:58.661Z,97347.00
2023-05-10T03:12:06.093Z,97347.59
2023-05-10T03:42:09.016Z,97359.66
2023-05-10T04:12:11.989Z,97383.97
2023-05-10T04:42:14.920Z,97385.59
2023-05-10T05:12:17.853Z,97423.19
2023-05-10T05:42:20.915Z,97449.38
2023-05-10T06:12:24.710Z,97457.53
2023-05-10T06:42:30.377Z,97474.72
2023-05-10T07:12:34.427Z,97501.84
2023-05-10T07:42:37.447Z,97525.00
2023-05-10T08:12:40.599Z,97552.47
2023-05-10T08:42:48.495Z,97561.06
2023-05-10T09:12:51.600Z,97584.91
2023-05-10T09:42:55.939Z,97603.53
2023-05-10T10:12:59.162Z,97620.19
2023-05-10T10:43:22.779Z,97633.34
2023-05-10T11:13:33.163Z,97634.22
2023-05-10T11:43:36.249Z,97627.88
2023-05-10T12:13:40.794Z,97645.50
2023-05-10T12:43:44.167Z,97681.25
2023-05-10T13:13:47.181Z,97693.06
2023-05-10T13:43:50.136Z,97683.78
2023-05-10T14:13:53.151Z,97671.66
2023-05-10T14:43:56.114Z,97671.16
2023-05-10T15:13:59.044Z,97667.41
2023-05-10T15:44:02.058Z,97677.81
2023-05-10T16:14:07.146Z,97697.19
2023-05-10T16:44:10.272Z,97702.06
2023-05-10T17:14:13.209Z,97711.06
2023-05-10T17:44:17.401Z,97724.75
2023-05-10T18:14:31.941Z,97743.63
2023-05-10T18:44:39.334Z,97742.56
2023-05-10T19:14:42.467Z,97770.31
2023-05-10T19:44:45.933Z,97780.75
2023-05-10T20:14:48.938Z,97794.53
2023-05-10T20:44:51.980Z,97804.59
2023-05-10T21:14:55.074Z,97797.94
2023-05-10T21:44:58.120Z,97803.28
2023-05-10T22:15:10.450Z,97809.78
2023-05-10T22:45:13.897Z,97813.16
2023-05-10T23:15:16.946Z,97820.19
2023-05-10T23:45:20.018Z,97818.66
